Time;durP1;ratioP1;P1;durP2;ratioP2;P2;SDS_P1;SDS_P2;PMS_P1;PMS_P2;Temp;Humidity;BMP_temperature;BMP_pressure;BME280_temperature;BME280_humidity;BME280_pressure;Samples;Min_cycle;Max_cycle;Signal;HPM_P1;HPM_P2
2023/05/02 00:00:41;;;;;;;4.15;3.72;;;;;;;;;;5089256;28;20024;-75
2023/05/02 00:03:07;;;;;;;5.50;4.10;;;;;;;;;;5096422;28;20036;-75
2023/05/02 00:05:34;;;;;;;5.00;4.07;;;;;;;;;;5082920;28;20498;-75
2023/05/02 00:08:00;;;;;;;6.60;4.90;;;;;;;;;;5076094;28;20058;-75
2023/05/02 00:10:26;;;;;;;6.25;4.80;;;;;;;;;;5071679;28;20040;-75
2023/05/02 00:12:52;;;;;;;8.57;4.97;;;;;;;;;;5085662;28;20040;-75
2023/05/02 00:15:19;;;;;;;6.90;5.07;;;;;;;;;;5081735;28;20104;-75
2023/05/02 00:17:45;;;;;;;11.65;5.65;;;;;;;;;;5091004;28;20020;-75
2023/05/02 00:20:11;;;;;;;8.70;5.30;;;;;;;;;;5084133;28;20012;-75
2023/05/02 00:22:38;;;;;;;8.63;5.05;;;;;;;;;;5080279;28;20032;-75
2023/05/02 00:25:04;;;;;;;6.30;4.45;;;;;;;;;;5086262;28;20028;-75
2023/05/02 00:27:32;;;;;;;7.03;4.68;;;;;;;;;;5085475;28;20101;-75
2023/05/02 00:29:59;;;;;;;6.88;4.25;;;;;;;;;;5084191;28;21175;-75
2023/05/02 00:32:25;;;;;;;7.38;4.47;;;;;;;;;;5078313;28;20044;-75
2023/05/02 00:34:53;;;;;;;8.00;4.90;;;;;;;;;;5078536;28;20071;-75
2023/05/02 00:37:20;;;;;;;8.48;5.22;;;;;;;;;;5097019;28;20074;-75
2023/05/02 00:39:46;;;;;;;8.93;5.22;;;;;;;;;;5091109;28;20020;-75
2023/05/02 00:42:12;;;;;;;7.90;4.78;;;;;;;;;;5074790;28;20020;-75
2023/05/02 00:44:39;;;;;;;7.50;5.00;;;;;;;;;;5072244;28;20074;-75
2023/05/02 00:47:05;;;;;;;7.20;5.00;;;;;;;;;;5079335;28;20503;-75
2023/05/02 00:49:31;;;;;;;7.07;4.85;;;;;;;;;;5083309;28;20480;-75
2023/05/02 00:51:58;;;;;;;8.00;5.13;;;;;;;;;;5076987;28;20028;-76
2023/05/02 00:54:24;;;;;;;7.43;5.20;;;;;;;;;;5078993;28;20073;-75
2023/05/02 00:56:50;;;;;;;7.28;4.85;;;;;;;;;;5086994;28;20028;-76
2023/05/02 00:59:17;;;;;;;8.05;5.38;;;;;;;;;;5076790;28;20039;-75
2023/05/02 01:01:43;;;;;;;11.57;7.32;;;;;;;;;;5084580;28;20120;-75
2023/05/02 01:04:28;;;;;;;10.65;7.53;;;;;;;;;;5076372;28;20405;-75
2023/05/02 01:07:03;;;;;;;14.75;8.50;;;;;;;;;;5085309;28;20059;-75
2023/05/02 01:09:38;;;;;;;13.77;8.38;;;;;;;;;;5085472;28;20028;-75
2023/05/02 01:12:24;;;;;;;13.40;8.85;;;;;;;;;;5075000;28;20397;-75
2023/05/02 01:14:55;;;;;;;13.30;7.85;;;;;;;;;;5079532;28;20024;-75
2023/05/02 01:17:24;;;;;;;11.18;7.55;;;;;;;;;;5078539;28;20149;-75
2023/05/02 01:19:55;;;;;;;12.52;8.07;;;;;;;;;;5085552;28;20020;-75
2023/05/02 01:22:22;;;;;;;12.20;7.50;;;;;;;;;;5079579;28;20029;-75
2023/05/02 01:25:03;;;;;;;13.02;7.70;;;;;;;;;;5096160;28;20035;-75
2023/05/02 01:27:48;;;;;;;7.97;5.70;;;;;;;;;;5093498;28;20030;-75
2023/05/02 01:30:15;;;;;;;8.23;5.87;;;;;;;;;;5097057;28;20020;-75
2023/05/02 01:32:43;;;;;;;7.50;5.35;;;;;;;;;;5095999;28;20843;-75
2023/05/02 01:35:10;;;;;;;7.97;5.60;;;;;;;;;;5082949;28;20485;-74
2023/05/02 01:37:37;;;;;;;8.50;5.13;;;;;;;;;;5092607;28;20024;-75
2023/05/02 01:40:05;;;;;;;5.55;4.00;;;;;;;;;;5077930;28;20035;-75
2023/05/02 01:42:32;;;;;;;6.63;4.65;;;;;;;;;;5087559;28;20029;-75
2023/05/02 01:44:59;;;;;;;6.88;3.97;;;;;;;;;;5087661;28;20032;-75
2023/05/02 01:47:26;;;;;;;5.47;4.18;;;;;;;;;;5079870;28;20028;-75
2023/05/02 01:49:52;;;;;;;5.97;4.43;;;;;;;;;;5078230;28;20680;-75
2023/05/02 01:52:20;;;;;;;5.07;3.85;;;;;;;;;;5087765;28;20032;-75
2023/05/02 01:54:47;;;;;;;4.53;3.50;;;;;;;;;;5086072;28;20054;-75
2023/05/02 01:57:14;;;;;;;5.82;3.65;;;;;;;;;;5086097;28;20440;-75
2023/05/02 01:59:40;;;;;;;5.65;3.08;;;;;;;;;;5084706;28;20026;-75
2023/05/02 02:02:07;;;;;;;5.78;3.95;;;;;;;;;;5087747;28;20241;-74
2023/05/02 02:04:34;;;;;;;5.53;3.28;;;;;;;;;;5076619;28;20026;-75
2023/05/02 02:07:03;;;;;;;8.63;3.22;;;;;;;;;;5081341;28;20036;-75
2023/05/02 02:09:30;;;;;;;5.78;2.85;;;;;;;;;;5103645;28;20046;-75
2023/05/02 02:11:56;;;;;;;6.30;2.97;;;;;;;;;;5085723;28;20020;-75
2023/05/02 02:14:24;;;;;;;7.78;2.78;;;;;;;;;;5080166;28;21413;-75
2023/05/02 02:16:53;;;;;;;5.97;2.97;;;;;;;;;;5095598;28;20020;-75
2023/05/02 02:19:20;;;;;;;5.75;4.32;;;;;;;;;;5083559;28;20028;-75
2023/05/02 02:21:47;;;;;;;6.30;2.72;;;;;;;;;;5088254;28;20028;-75
2023/05/02 02:24:14;;;;;;;4.82;2.50;;;;;;;;;;5086296;28;20020;-75
2023/05/02 02:26:41;;;;;;;6.75;2.78;;;;;;;;;;5078990;28;20019;-75
2023/05/02 02:29:07;;;;;;;7.88;3.88;;;;;;;;;;5095485;28;20024;-74
2023/05/02 02:31:34;;;;;;;6.13;2.78;;;;;;;;;;5083377;28;20098;-75
2023/05/02 02:34:01;;;;;;;5.18;3.55;;;;;;;;;;5080276;28;20024;-75
2023/05/02 02:36:40;;;;;;;7.40;3.22;;;;;;;;;;5082863;28;20047;-75
2023/05/02 02:39:06;;;;;;;6.75;3.17;;;;;;;;;;5082527;28;20380;-75
2023/05/02 02:41:53;;;;;;;4.88;3.55;;;;;;;;;;5096841;28;20142;-75
2023/05/02 02:44:34;;;;;;;8.05;3.42;;;;;;;;;;5055002;28;20047;-75
2023/05/02 02:47:07;;;;;;;5.13;3.17;;;;;;;;;;5081851;28;20027;-75
2023/05/02 02:49:51;;;;;;;8.98;3.13;;;;;;;;;;5098372;28;20040;-75
2023/05/02 02:52:26;;;;;;;7.90;3.50;;;;;;;;;;5085510;28;20415;-75
2023/05/02 02:54:57;;;;;;;7.60;3.50;;;;;;;;;;5082683;28;20062;-75
2023/05/02 02:57:28;;;;;;;6.45;3.17;;;;;;;;;;5077946;28;20021;-75
2023/05/02 02:59:57;;;;;;;7.00;3.50;;;;;;;;;;5080526;28;20032;-75
2023/05/02 03:02:27;;;;;;;6.35;3.13;;;;;;;;;;5082640;28;20031;-76
2023/05/02 03:04:53;;;;;;;6.68;3.90;;;;;;;;;;5097234;28;20404;-75
2023/05/02 03:07:19;;;;;;;11.63;3.60;;;;;;;;;;5078920;28;20111;-75
2023/05/02 03:09:47;;;;;;;6.47;3.72;;;;;;;;;;5078180;28;20040;-75
2023/05/02 03:12:13;;;;;;;8.85;4.88;;;;;;;;;;5100421;28;20440;-75
2023/05/02 03:14:40;;;;;;;9.38;4.88;;;;;;;;;;5080265;28;20060;-75
2023/05/02 03:17:09;;;;;;;9.27;4.28;;;;;;;;;;5082533;28;20028;-75
2023/05/02 03:19:36;;;;;;;7.65;3.75;;;;;;;;;;5083253;28;20078;-75
2023/05/02 03:22:02;;;;;;;9.73;3.88;;;;;;;;;;5088051;28;20024;-75
2023/05/02 03:24:28;;;;;;;9.82;4.32;;;;;;;;;;5081247;28;20031;-75
2023/05/02 03:26:55;;;;;;;4.97;3.33;;;;;;;;;;5097589;28;20030;-75
2023/05/02 03:29:22;;;;;;;5.82;3.78;;;;;;;;;;5088863;28;20605;-75
2023/05/02 03:31:48;;;;;;;6.28;3.55;;;;;;;;;;5085953;28;20033;-76
2023/05/02 03:34:14;;;;;;;7.93;5.38;;;;;;;;;;5084251;28;20035;-75
2023/05/02 03:36:40;;;;;;;12.23;4.25;;;;;;;;;;5103530;28;20055;-75
2023/05/02 03:39:06;;;;;;;9.35;4.55;;;;;;;;;;5072735;28;20024;-75
2023/05/02 03:41:32;;;;;;;7.28;4.13;;;;;;;;;;5096590;28;20481;-75
2023/05/02 03:43:58;;;;;;;12.85;4.45;;;;;;;;;;5089998;28;20387;-75
2023/05/02 03:46:24;;;;;;;11.23;4.80;;;;;;;;;;5078064;28;20366;-75
2023/05/02 03:48:51;;;;;;;7.82;4.38;;;;;;;;;;5080526;28;20032;-75
2023/05/02 03:51:17;;;;;;;6.80;4.25;;;;;;;;;;5081009;28;20032;-75
2023/05/02 03:53:43;;;;;;;10.07;4.63;;;;;;;;;;5077814;28;20021;-76
2023/05/02 03:56:09;;;;;;;6.82;4.05;;;;;;;;;;5084079;28;20664;-76
2023/05/02 03:58:35;;;;;;;7.05;4.40;;;;;;;;;;5074617;28;20032;-75
2023/05/02 04:01:02;;;;;;;8.77;4.22;;;;;;;;;;5079407;28;20028;-75
2023/05/02 04:03:28;;;;;;;8.75;4.15;;;;;;;;;;5103207;28;20028;-76
2023/05/02 04:05:54;;;;;;;9.70;4.70;;;;;;;;;;5081854;28;21341;-75
2023/05/02 04:08:20;;;;;;;7.75;4.63;;;;;;;;;;5080937;28;20095;-75
2023/05/02 04:10:46;;;;;;;7.03;4.20;;;;;;;;;;5078703;28;20032;-75
2023/05/02 04:13:12;;;;;;;6.88;3.90;;;;;;;;;;5084610;28;20093;-75
2023/05/02 04:15:38;;;;;;;9.43;4.97;;;;;;;;;;5077356;28;20088;-75
2023/05/02 04:18:05;;;;;;;7.13;3.70;;;;;;;;;;5066633;28;20103;-75
2023/05/02 04:20:31;;;;;;;7.80;4.43;;;;;;;;;;5077749;28;20123;-75
2023/05/02 04:22:57;;;;;;;13.05;4.30;;;;;;;;;;5076997;28;20028;-75
2023/05/02 04:25:23;;;;;;;7.20;3.45;;;;;;;;;;5081218;28;20035;-75
2023/05/02 04:27:49;;;;;;;6.20;3.15;;;;;;;;;;5083686;28;20024;-76
2023/05/02 04:30:15;;;;;;;6.47;3.28;;;;;;;;;;5073917;28;20121;-75
2023/05/02 04:32:41;;;;;;;7.78;3.17;;;;;;;;;;5083182;28;20075;-75
2023/05/02 04:35:08;;;;;;;6.47;3.53;;;;;;;;;;5082066;28;20024;-76
2023/05/02 04:37:34;;;;;;;8.52;3.22;;;;;;;;;;5082166;28;20099;-75
2023/05/02 04:40:00;;;;;;;9.13;3.85;;;;;;;;;;5082767;28;20021;-75
2023/05/02 04:42:27;;;;;;;8.80;3.55;;;;;;;;;;5082313;28;20085;-76
2023/05/02 04:44:53;;;;;;;8.20;3.38;;;;;;;;;;5082768;28;20473;-75
2023/05/02 04:47:19;;;;;;;5.10;3.10;;;;;;;;;;5088379;28;20033;-75
2023/05/02 04:49:45;;;;;;;9.10;3.58;;;;;;;;;;5086891;28;20032;-75
2023/05/02 04:52:11;;;;;;;6.82;3.55;;;;;;;;;;5082705;28;20047;-75
2023/05/02 04:54:37;;;;;;;8.18;4.57;;;;;;;;;;5084525;28;20068;-76
2023/05/02 04:57:06;;;;;;;10.73;3.85;;;;;;;;;;5075960;28;20037;-75
2023/05/02 04:59:32;;;;;;;6.43;3.30;;;;;;;;;;5071624;28;20065;-75
2023/05/02 05:01:58;;;;;;;7.65;3.13;;;;;;;;;;5091823;28;20067;-75
2023/05/02 05:04:25;;;;;;;7.40;3.95;;;;;;;;;;5074762;28;20020;-75
2023/05/02 05:06:51;;;;;;;5.10;3.30;;;;;;;;;;5091393;28;20025;-75
2023/05/02 05:09:17;;;;;;;10.25;3.40;;;;;;;;;;5092535;28;20469;-75
2023/05/02 05:11:45;;;;;;;5.07;3.88;;;;;;;;;;5085609;28;20121;-75
2023/05/02 05:14:11;;;;;;;7.70;3.72;;;;;;;;;;5082497;28;20016;-75
2023/05/02 05:16:37;;;;;;;7.40;3.15;;;;;;;;;;5098195;28;20024;-75
2023/05/02 05:19:04;;;;;;;6.93;3.10;;;;;;;;;;5089307;28;20023;-75
2023/05/02 05:21:30;;;;;;;6.22;3.15;;;;;;;;;;5096382;28;20610;-75
2023/05/02 05:23:56;;;;;;;8.82;3.65;;;;;;;;;;5083882;28;20485;-75
2023/05/02 05:26:24;;;;;;;6.93;3.45;;;;;;;;;;5083162;28;20020;-75
2023/05/02 05:28:50;;;;;;;4.47;2.72;;;;;;;;;;5097937;28;20031;-75
2023/05/02 05:31:16;;;;;;;9.30;4.00;;;;;;;;;;5078838;28;20040;-75
2023/05/02 05:33:42;;;;;;;5.70;3.30;;;;;;;;;;5083535;28;20046;-74
2023/05/02 05:36:09;;;;;;;6.85;3.55;;;;;;;;;;5077535;28;20020;-75
2023/05/02 05:38:36;;;;;;;10.13;4.38;;;;;;;;;;5085155;28;20031;-76
2023/05/02 05:41:03;;;;;;;7.82;3.83;;;;;;;;;;5089831;28;20028;-76
2023/05/02 05:43:30;;;;;;;5.00;3.38;;;;;;;;;;5092493;28;20053;-74
2023/05/02 05:45:56;;;;;;;5.80;3.35;;;;;;;;;;5083793;28;20084;-75
2023/05/02 05:48:22;;;;;;;8.90;3.42;;;;;;;;;;5094800;28;20036;-75
2023/05/02 05:50:50;;;;;;;9.27;3.72;;;;;;;;;;5077299;28;20107;-75
2023/05/02 05:53:17;;;;;;;6.32;3.42;;;;;;;;;;5078723;28;20380;-75
2023/05/02 05:55:43;;;;;;;7.50;3.50;;;;;;;;;;5093399;28;20027;-75
2023/05/02 05:58:09;;;;;;;8.73;4.03;;;;;;;;;;5087320;28;20033;-76
2023/05/02 06:00:35;;;;;;;8.73;3.67;;;;;;;;;;5083796;28;20066;-76
2023/05/02 06:03:02;;;;;;;7.47;3.60;;;;;;;;;;5088198;28;20036;-76
2023/05/02 06:05:29;;;;;;;7.13;3.42;;;;;;;;;;5099432;28;20377;-76
2023/05/02 06:07:55;;;;;;;8.55;3.90;;;;;;;;;;5095403;28;20020;-75
2023/05/02 06:10:21;;;;;;;8.90;4.20;;;;;;;;;;5084514;28;20049;-76
2023/05/02 06:12:47;;;;;;;6.97;4.20;;;;;;;;;;5086015;28;20043;-75
2023/05/02 06:15:13;;;;;;;7.05;4.18;;;;;;;;;;5083084;28;20020;-75
2023/05/02 06:17:39;;;;;;;5.95;3.72;;;;;;;;;;5082033;28;20020;-75
2023/05/02 06:20:06;;;;;;;5.35;3.45;;;;;;;;;;5087733;28;20027;-75
2023/05/02 06:22:32;;;;;;;6.43;3.80;;;;;;;;;;5085175;28;20042;-76
2023/05/02 06:24:59;;;;;;;9.18;4.22;;;;;;;;;;5082793;28;20096;-77
2023/05/02 06:27:26;;;;;;;7.85;4.38;;;;;;;;;;5084568;28;20036;-76
2023/05/02 06:29:53;;;;;;;5.45;3.58;;;;;;;;;;5083650;28;20047;-76
2023/05/02 06:32:20;;;;;;;7.30;4.18;;;;;;;;;;5094291;28;20039;-76
2023/05/02 06:34:46;;;;;;;7.78;4.05;;;;;;;;;;5087108;28;20054;-76
2023/05/02 06:37:12;;;;;;;7.20;3.63;;;;;;;;;;5078966;28;20025;-76
2023/05/02 06:39:39;;;;;;;11.32;4.47;;;;;;;;;;5076281;28;20113;-76
2023/05/02 06:42:05;;;;;;;7.93;4.47;;;;;;;;;;5081935;28;20026;-75
2023/05/02 06:44:32;;;;;;;8.00;4.38;;;;;;;;;;5079646;28;20020;-77
2023/05/02 06:46:59;;;;;;;6.68;4.20;;;;;;;;;;5097392;28;20108;-77
2023/05/02 06:49:26;;;;;;;9.25;4.35;;;;;;;;;;5082264;28;20485;-76
2023/05/02 06:51:52;;;;;;;7.03;4.15;;;;;;;;;;5083077;28;20103;-76
2023/05/02 06:54:20;;;;;;;8.50;4.00;;;;;;;;;;5086233;28;20017;-76
2023/05/02 06:56:46;;;;;;;5.63;3.63;;;;;;;;;;5081130;28;20016;-76
2023/05/02 06:59:12;;;;;;;10.02;4.13;;;;;;;;;;5085763;28;20461;-77
2023/05/02 07:01:38;;;;;;;5.30;3.42;;;;;;;;;;5077514;28;20426;-76
2023/05/02 07:04:05;;;;;;;10.40;4.40;;;;;;;;;;5074810;28;20043;-76
2023/05/02 07:06:31;;;;;;;8.23;3.88;;;;;;;;;;5072926;28;20047;-77
2023/05/02 07:08:57;;;;;;;9.38;4.03;;;;;;;;;;5084972;28;20039;-77
2023/05/02 07:11:24;;;;;;;11.35;4.30;;;;;;;;;;5084593;28;20377;-77
2023/05/02 07:13:50;;;;;;;9.25;4.82;;;;;;;;;;5087182;28;20460;-77
2023/05/02 07:16:16;;;;;;;6.13;3.60;;;;;;;;;;5080789;28;20059;-78
2023/05/02 07:18:44;;;;;;;10.85;5.00;;;;;;;;;;5078716;28;20059;-76
2023/05/02 07:21:10;;;;;;;8.38;4.35;;;;;;;;;;5096085;28;20400;-76
2023/05/02 07:23:37;;;;;;;6.05;3.78;;;;;;;;;;5079595;28;20016;-76
2023/05/02 07:26:04;;;;;;;7.18;3.90;;;;;;;;;;5072853;28;20024;-76
2023/05/02 07:28:30;;;;;;;6.63;4.05;;;;;;;;;;5077088;28;20507;-80
2023/05/02 07:30:56;;;;;;;5.25;3.67;;;;;;;;;;5078686;28;20028;-76
2023/05/02 07:33:23;;;;;;;5.38;3.50;;;;;;;;;;5077930;28;20028;-76
2023/05/02 07:35:49;;;;;;;8.93;4.03;;;;;;;;;;5093518;28;20024;-76
2023/05/02 07:38:16;;;;;;;6.40;4.00;;;;;;;;;;5095457;28;20029;-77
2023/05/02 07:40:42;;;;;;;8.20;3.85;;;;;;;;;;5098936;28;20057;-76
2023/05/02 07:43:09;;;;;;;7.25;4.32;;;;;;;;;;5081512;28;20035;-76
2023/05/02 07:45:35;;;;;;;10.07;4.10;;;;;;;;;;5090534;28;20048;-79
2023/05/02 07:48:01;;;;;;;10.70;4.70;;;;;;;;;;5083856;28;20052;-77
2023/05/02 07:50:27;;;;;;;7.15;4.40;;;;;;;;;;5083997;28;20031;-77
2023/05/02 07:52:55;;;;;;;7.78;4.57;;;;;;;;;;5079938;28;20043;-77
2023/05/02 07:55:21;;;;;;;8.38;4.20;;;;;;;;;;5082526;28;20095;-77
2023/05/02 07:57:47;;;;;;;7.80;4.30;;;;;;;;;;5080150;28;20024;-77
2023/05/02 08:00:15;;;;;;;8.25;4.43;;;;;;;;;;5092372;28;20024;-76
2023/05/02 08:02:41;;;;;;;7.07;4.45;;;;;;;;;;5071076;28;20802;-76
2023/05/02 08:05:08;;;;;;;6.85;3.75;;;;;;;;;;5077187;28;20073;-76
2023/05/02 08:07:34;;;;;;;8.05;4.22;;;;;;;;;;5076735;28;20028;-80
2023/05/02 08:10:00;;;;;;;5.93;3.83;;;;;;;;;;5095252;28;20396;-83
2023/05/02 08:12:26;;;;;;;6.82;4.13;;;;;;;;;;5085651;28;20107;-75
2023/05/02 08:14:53;;;;;;;11.18;4.10;;;;;;;;;;5080264;28;20039;-75
2023/05/02 08:17:20;;;;;;;5.88;4.10;;;;;;;;;;5088589;28;20028;-76
2023/05/02 08:19:46;;;;;;;9.52;4.65;;;;;;;;;;5072476;28;20111;-76
2023/05/02 08:22:12;;;;;;;8.55;5.28;;;;;;;;;;5096361;28;20125;-75
2023/05/02 08:24:39;;;;;;;6.45;5.20;;;;;;;;;;5072428;28;20028;-75
2023/05/02 08:27:05;;;;;;;6.60;5.10;;;;;;;;;;5075177;28;20027;-76
2023/05/02 08:29:32;;;;;;;6.63;4.43;;;;;;;;;;5076822;28;20036;-75
2023/05/02 08:31:58;;;;;;;9.15;4.57;;;;;;;;;;5075166;28;20056;-76
2023/05/02 08:34:24;;;;;;;7.13;4.97;;;;;;;;;;5079554;28;20116;-75
2023/05/02 08:36:51;;;;;;;8.10;4.78;;;;;;;;;;5075262;28;20090;-76
2023/05/02 08:39:17;;;;;;;8.30;5.15;;;;;;;;;;5080465;28;20514;-77
2023/05/02 08:41:43;;;;;;;7.45;4.63;;;;;;;;;;5077963;28;20016;-76
2023/05/02 08:44:11;;;;;;;7.22;4.53;;;;;;;;;;5094944;28;20035;-76
2023/05/02 08:46:40;;;;;;;10.00;4.65;;;;;;;;;;5095267;28;20024;-76
2023/05/02 08:49:07;;;;;;;8.73;5.10;;;;;;;;;;5080083;28;20034;-76
2023/05/02 08:51:34;;;;;;;8.45;5.78;;;;;;;;;;5078680;28;20035;-76
2023/05/02 08:54:02;;;;;;;7.18;4.80;;;;;;;;;;5083239;28;20059;-76
2023/05/02 08:56:28;;;;;;;6.10;4.90;;;;;;;;;;5094942;28;20023;-76
2023/05/02 08:58:55;;;;;;;6.70;4.55;;;;;;;;;;5080964;28;20102;-76
2023/05/02 09:01:23;;;;;;;7.63;5.57;;;;;;;;;;5078268;28;20376;-74
2023/05/02 09:03:49;;;;;;;10.52;5.55;;;;;;;;;;5074613;28;20051;-74
2023/05/02 09:06:16;;;;;;;7.13;5.15;;;;;;;;;;5075257;28;20074;-74
2023/05/02 09:08:44;;;;;;;7.50;5.32;;;;;;;;;;5081666;28;20062;-76
2023/05/02 09:11:10;;;;;;;8.48;5.05;;;;;;;;;;5079003;28;20170;-74
2023/05/02 09:13:38;;;;;;;8.38;5.20;;;;;;;;;;5075318;28;20029;-74
2023/05/02 09:16:22;;;;;;;7.22;5.15;;;;;;;;;;5074994;28;20086;-74
2023/05/02 09:18:58;;;;;;;5.63;4.13;;;;;;;;;;5085175;28;20067;-75
2023/05/02 09:21:26;;;;;;;7.88;5.25;;;;;;;;;;5093544;28;20469;-74
2023/05/02 09:23:56;;;;;;;7.30;4.88;;;;;;;;;;5083243;28;20101;-75
2023/05/02 09:26:30;;;;;;;8.05;4.88;;;;;;;;;;5091017;28;20062;-74
2023/05/02 09:28:56;;;;;;;10.98;5.07;;;;;;;;;;5073417;28;20028;-74
2023/05/02 09:31:29;;;;;;;6.53;3.90;;;;;;;;;;5075081;28;20036;-75
2023/05/02 09:33:56;;;;;;;7.03;5.07;;;;;;;;;;5078150;28;20443;-73
2023/05/02 09:36:22;;;;;;;5.70;5.03;;;;;;;;;;5071617;28;20561;-74
2023/05/02 09:38:49;;;;;;;8.38;4.85;;;;;;;;;;5090010;28;20021;-75
2023/05/02 09:41:18;;;;;;;12.15;4.57;;;;;;;;;;5078638;28;20052;-74
2023/05/02 09:43:54;;;;;;;8.80;5.10;;;;;;;;;;5073382;28;20361;-77
2023/05/02 09:46:20;;;;;;;10.00;4.68;;;;;;;;;;5100160;28;20053;-75
2023/05/02 09:48:54;;;;;;;9.23;5.10;;;;;;;;;;5070669;28;20040;-75
2023/05/02 09:51:21;;;;;;;8.05;4.20;;;;;;;;;;5101421;28;20031;-75
2023/05/02 09:53:47;;;;;;;9.02;4.55;;;;;;;;;;5080098;28;20100;-75
2023/05/02 09:56:13;;;;;;;6.35;4.65;;;;;;;;;;5088075;28;20020;-76
2023/05/02 09:58:39;;;;;;;7.32;4.60;;;;;;;;;;5086206;28;20368;-75
2023/05/02 10:01:06;;;;;;;8.52;4.63;;;;;;;;;;5078433;28;20384;-75
2023/05/02 10:03:35;;;;;;;8.40;4.65;;;;;;;;;;5092416;28;20064;-75
2023/05/02 10:06:02;;;;;;;5.72;4.47;;;;;;;;;;5100896;28;20103;-75
2023/05/02 10:08:28;;;;;;;5.10;4.05;;;;;;;;;;5086302;28;20051;-76
2023/05/02 10:10:55;;;;;;;5.10;4.55;;;;;;;;;;5088752;28;20128;-76
2023/05/02 10:13:23;;;;;;;8.07;4.90;;;;;;;;;;5081815;28;20031;-75
2023/05/02 10:15:54;;;;;;;6.50;5.00;;;;;;;;;;5089071;28;20121;-76
2023/05/02 10:18:24;;;;;;;9.02;4.72;;;;;;;;;;5079493;28;20046;-76
2023/05/02 10:20:58;;;;;;;5.97;4.13;;;;;;;;;;5077520;28;20111;-76
2023/05/02 10:23:28;;;;;;;10.00;4.45;;;;;;;;;;5082557;28;20028;-76
2023/05/02 10:25:55;;;;;;;6.10;4.18;;;;;;;;;;5075749;28;20081;-76
2023/05/02 10:28:21;;;;;;;5.13;4.22;;;;;;;;;;5090237;28;20032;-76
2023/05/02 10:30:47;;;;;;;6.75;4.30;;;;;;;;;;5081927;28;20036;-75
2023/05/02 10:33:13;;;;;;;7.10;4.32;;;;;;;;;;5078548;28;20500;-76
2023/05/02 10:35:45;;;;;;;6.93;4.65;;;;;;;;;;5088804;28;20035;-76
2023/05/02 10:38:11;;;;;;;6.30;4.53;;;;;;;;;;5088057;28;20028;-75
2023/05/02 10:40:39;;;;;;;6.53;4.20;;;;;;;;;;5097830;28;20028;-75
2023/05/02 10:43:06;;;;;;;6.15;4.68;;;;;;;;;;5082723;28;20030;-75
2023/05/02 10:45:36;;;;;;;6.53;4.18;;;;;;;;;;5068268;28;20089;-75
2023/05/02 10:48:14;;;;;;;8.50;4.97;;;;;;;;;;5080856;28;20035;-75
2023/05/02 10:50:47;;;;;;;8.07;4.93;;;;;;;;;;5082340;28;20354;-76
2023/05/02 10:53:35;;;;;;;7.78;4.78;;;;;;;;;;5081144;28;20028;-76
2023/05/02 10:56:20;;;;;;;5.07;4.22;;;;;;;;;;5084425;28;20476;-76
2023/05/02 10:58:47;;;;;;;9.05;5.28;;;;;;;;;;5076017;28;20035;-76
2023/05/02 11:01:26;;;;;;;8.43;5.72;;;;;;;;;;5080206;28;20043;-74
2023/05/02 11:03:59;;;;;;;8.70;4.85;;;;;;;;;;5076560;28;20244;-74
2023/05/02 11:06:26;;;;;;;6.78;4.65;;;;;;;;;;5086477;28;20028;-75
2023/05/02 11:08:52;;;;;;;6.18;5.07;;;;;;;;;;5079781;28;20036;-74
2023/05/02 11:11:37;;;;;;;7.68;4.60;;;;;;;;;;5098786;28;20025;-75
2023/05/02 11:14:03;;;;;;;7.32;5.32;;;;;;;;;;5077023;28;20040;-75
2023/05/02 11:16:50;;;;;;;7.93;3.97;;;;;;;;;;5098658;28;20653;-75
2023/05/02 11:19:16;;;;;;;6.75;4.55;;;;;;;;;;5079852;28;20047;-75
2023/05/02 11:21:42;;;;;;;11.27;4.65;;;;;;;;;;5079930;28;20123;-75
2023/05/02 11:24:27;;;;;;;5.05;4.30;;;;;;;;;;5087243;28;20073;-75
2023/05/02 11:26:54;;;;;;;6.22;4.07;;;;;;;;;;5079419;28;20428;-75
2023/05/02 11:29:38;;;;;;;5.57;3.80;;;;;;;;;;5076333;28;20023;-76
2023/05/02 11:32:04;;;;;;;5.47;4.20;;;;;;;;;;5088148;28;20057;-76
2023/05/02 11:34:39;;;;;;;5.40;4.43;;;;;;;;;;5073359;28;20017;-76
2023/05/02 11:37:12;;;;;;;5.95;4.25;;;;;;;;;;5074521;28;20077;-76
2023/05/02 11:39:39;;;;;;;7.05;3.75;;;;;;;;;;5086277;28;20024;-75
2023/05/02 11:42:05;;;;;;;5.70;3.60;;;;;;;;;;5082834;28;20472;-76
2023/05/02 11:44:32;;;;;;;6.07;3.90;;;;;;;;;;5093341;28;20515;-75
2023/05/02 11:46:58;;;;;;;6.25;4.40;;;;;;;;;;5077678;28;20567;-74
2023/05/02 11:49:24;;;;;;;6.88;4.65;;;;;;;;;;5085423;28;20081;-74
2023/05/02 11:51:51;;;;;;;7.10;4.07;;;;;;;;;;5101725;28;20059;-76
2023/05/02 11:54:20;;;;;;;7.70;4.68;;;;;;;;;;5074451;28;20033;-75
2023/05/02 11:56:47;;;;;;;7.70;4.70;;;;;;;;;;5082935;28;20021;-75
2023/05/02 11:59:13;;;;;;;6.35;4.80;;;;;;;;;;5084091;28;20553;-74
2023/05/02 12:01:49;;;;;;;5.95;5.25;;;;;;;;;;5101444;28;20023;-75
2023/05/02 12:04:20;;;;;;;5.47;3.90;;;;;;;;;;5088930;28;20024;-75
2023/05/02 12:06:56;;;;;;;6.20;4.40;;;;;;;;;;5073440;28;20039;-75
2023/05/02 12:09:22;;;;;;;8.10;4.80;;;;;;;;;;5085592;28;20036;-75
2023/05/02 12:11:54;;;;;;;10.57;5.13;;;;;;;;;;5075175;28;20381;-77
2023/05/02 12:14:27;;;;;;;7.63;4.43;;;;;;;;;;5080214;28;20020;-74
2023/05/02 12:16:54;;;;;;;6.07;4.20;;;;;;;;;;5076473;28;20028;-74
2023/05/02 12:19:21;;;;;;;6.57;4.68;;;;;;;;;;5072359;28;20079;-74
2023/05/02 12:21:47;;;;;;;7.43;4.40;;;;;;;;;;5073920;28;20047;-74
2023/05/02 12:24:14;;;;;;;5.57;3.85;;;;;;;;;;5085268;28;20115;-77
2023/05/02 12:26:40;;;;;;;4.70;4.18;;;;;;;;;;5073787;28;20103;-75
2023/05/02 12:29:07;;;;;;;6.88;4.13;;;;;;;;;;5085195;28;20139;-74
2023/05/02 12:31:33;;;;;;;7.32;4.60;;;;;;;;;;5081830;28;20047;-76
2023/05/02 12:34:00;;;;;;;7.63;4.85;;;;;;;;;;5077359;28;20036;-76
2023/05/02 12:36:29;;;;;;;8.27;4.07;;;;;;;;;;5072785;28;20044;-74
2023/05/02 12:38:58;;;;;;;7.80;4.28;;;;;;;;;;5096037;28;20028;-74
2023/05/02 12:41:35;;;;;;;4.20;3.80;;;;;;;;;;5079980;28;20087;-76
2023/05/02 12:44:01;;;;;;;5.95;3.83;;;;;;;;;;5072182;28;20029;-77
2023/05/02 12:46:27;;;;;;;6.57;3.55;;;;;;;;;;5078909;28;20028;-80
2023/05/02 12:49:04;;;;;;;8.18;5.35;;;;;;;;;;5089488;28;20032;-79
2023/05/02 12:51:31;;;;;;;7.35;3.13;;;;;;;;;;5090177;28;20029;-77
2023/05/02 12:53:59;;;;;;;4.07;3.63;;;;;;;;;;5075452;28;20028;-75
2023/05/02 12:56:31;;;;;;;3.22;2.80;;;;;;;;;;5071339;28;20021;-75
2023/05/02 12:59:02;;;;;;;6.78;3.30;;;;;;;;;;5076071;28;20115;-75
2023/05/02 13:01:30;;;;;;;4.43;3.10;;;;;;;;;;5074075;28;20024;-76
2023/05/02 13:03:56;;;;;;;3.60;2.65;;;;;;;;;;5076259;28;20112;-75
2023/05/02 13:06:22;;;;;;;5.72;3.10;;;;;;;;;;5077555;28;20029;-76
2023/05/02 13:08:48;;;;;;;5.10;3.00;;;;;;;;;;5069812;28;20033;-74
2023/05/02 13:11:14;;;;;;;6.95;3.05;;;;;;;;;;5074103;28;20494;-75
2023/05/02 13:13:41;;;;;;;10.15;4.55;;;;;;;;;;5078718;28;20020;-74
2023/05/02 13:16:07;;;;;;;5.05;2.60;;;;;;;;;;5090389;28;20496;-74
2023/05/02 13:18:33;;;;;;;5.00;2.50;;;;;;;;;;5078907;28;20105;-74
2023/05/02 13:20:59;;;;;;;6.68;2.70;;;;;;;;;;5076007;28;20542;-74
2023/05/02 13:23:26;;;;;;;4.13;2.90;;;;;;;;;;5072613;28;20036;-75
2023/05/02 13:25:52;;;;;;;4.57;2.50;;;;;;;;;;5074274;28;20034;-74
2023/05/02 13:28:18;;;;;;;2.80;2.13;;;;;;;;;;5072414;28;20047;-76
2023/05/02 13:30:44;;;;;;;2.00;1.73;;;;;;;;;;5076846;28;20055;-75
2023/05/02 13:33:10;;;;;;;5.07;2.20;;;;;;;;;;5094581;28;20058;-75
2023/05/02 13:35:36;;;;;;;2.30;2.10;;;;;;;;;;5088394;28;20059;-75
2023/05/02 13:38:03;;;;;;;1.60;1.50;;;;;;;;;;5084049;28;20035;-75
2023/05/02 13:40:29;;;;;;;2.13;1.77;;;;;;;;;;5072577;28;20067;-75
2023/05/02 13:42:55;;;;;;;2.20;1.88;;;;;;;;;;5076891;28;20123;-75
2023/05/02 13:45:21;;;;;;;2.28;2.08;;;;;;;;;;5090524;28;20087;-75
2023/05/02 13:47:47;;;;;;;2.28;2.08;;;;;;;;;;5080821;28;20043;-75
2023/05/02 13:50:13;;;;;;;3.10;2.55;;;;;;;;;;5076658;28;20043;-75
2023/05/02 13:52:40;;;;;;;2.22;1.65;;;;;;;;;;5077576;28;20021;-74
2023/05/02 13:55:06;;;;;;;2.00;1.80;;;;;;;;;;5076362;28;20361;-75
2023/05/02 13:57:33;;;;;;;2.60;1.80;;;;;;;;;;5095225;28;20430;-75
2023/05/02 13:59:59;;;;;;;3.75;2.00;;;;;;;;;;5077464;28;20032;-75
2023/05/02 14:02:25;;;;;;;2.80;2.10;;;;;;;;;;5090229;28;20504;-76
2023/05/02 14:04:51;;;;;;;2.20;2.00;;;;;;;;;;5073712;28;20032;-76
2023/05/02 14:07:17;;;;;;;2.25;2.05;;;;;;;;;;5077766;28;20035;-76
2023/05/02 14:09:43;;;;;;;2.78;1.90;;;;;;;;;;5074200;28;21479;-75
2023/05/02 14:12:10;;;;;;;2.60;1.90;;;;;;;;;;5085387;28;20035;-76
2023/05/02 14:14:37;;;;;;;4.38;2.22;;;;;;;;;;5086259;28;20021;-76
2023/05/02 14:17:04;;;;;;;2.72;1.90;;;;;;;;;;5073250;28;20025;-76
2023/05/02 14:19:30;;;;;;;4.10;2.20;;;;;;;;;;5091345;28;21849;-76
2023/05/02 14:21:56;;;;;;;2.55;1.92;;;;;;;;;;5083887;28;20028;-76
2023/05/02 14:24:22;;;;;;;4.70;2.05;;;;;;;;;;5078542;28;20497;-76
2023/05/02 14:26:49;;;;;;;2.10;1.90;;;;;;;;;;5075172;28;20170;-76
2023/05/02 14:29:15;;;;;;;2.42;1.80;;;;;;;;;;5077668;28;20044;-75
2023/05/02 14:31:41;;;;;;;1.98;1.77;;;;;;;;;;5103113;28;20047;-76
2023/05/02 14:34:07;;;;;;;3.05;1.90;;;;;;;;;;5087121;28;20461;-76
2023/05/02 14:36:33;;;;;;;1.80;1.70;;;;;;;;;;5094022;28;20064;-76
2023/05/02 14:38:59;;;;;;;5.25;2.00;;;;;;;;;;5074774;28;20585;-75
2023/05/02 14:41:26;;;;;;;2.65;1.90;;;;;;;;;;5090149;28;20465;-75
2023/05/02 14:43:52;;;;;;;2.47;1.80;;;;;;;;;;5092861;28;20071;-75